Latest Weather Observations for Port Macquarie Airport

IDN60801

Issued at 8:02 am EST Friday 31 July 2015 (issued every 30 minutes, with the page automatically refreshed every 10 minutes)

About weather observations | Map of weather stations | Latest weather observations for NSW | Other Formats
Station Details ID: 060139 Name: PORT MACQUARIE AIRPORT AWS Lat: -31.43 Lon: 152.87 Height: 4.2 m
Data from the previous 72 hours. | See also: Recent months at Port Macquarie Airport
Date/Time
EST
Temp
°C
App
Temp
°C
Dew
Point
Rel
Hum
%
Delta-T
°C
Wind Press
QNH
hPa
Press
MSL
hPa
Rain
since 9 am
mm
Dir
 
Spd
km/h
Gust
km/h
Spd
kts
Gust
kts
31/08:00am 9.1 8.8 8.8 98 0.1 CALM 0 0 0 0 1021.9 1021.9 0.0
31/07:30am 5.6 3.4 5.2 97 0.2 NW 6 7 3 4 1021.6 1021.6 0.0
31/07:00am 4.3 2.9 3.7 96 0.2 CALM 0 0 0 0 1021.1 1021.1 0.0
31/06:30am 3.6 2.1 3.0 96 0.2 CALM 0 6 0 3 1020.7 1020.7 0.0
31/06:10am 4.6 2.1 3.9 95 0.3 N 6 9 3 5 1020.5 1020.5 0.0
31/06:00am 5.2 3.6 4.6 96 0.3 NW 2 9 1 5 1020.4 1020.4 0.0
31/05:30am 5.5 4.3 4.8 95 0.3 CALM 0 0 0 0 1020.2 1020.2 0.0
31/05:00am 4.7 3.4 4.0 95 0.3 CALM 0 0 0 0 1020.0 1020.0 0.0
31/04:37am 6.8 6.0 6.4 97 0.2 CALM 0 0 0 0 1019.9 1019.9 0.0
31/04:30am 7.5 6.8 7.1 97 0.2 CALM 0 0 0 0 1019.8 1019.8 0.0
31/04:00am 7.7 5.9 7.3 97 0.2 NNW 6 7 3 4 1019.8 1019.8 0.0
31/03:30am 7.1 6.3 6.5 96 0.3 CALM 0 0 0 0 1019.8 1019.8 0.0
31/03:00am 7.1 5.2 6.5 96 0.3 W 6 7 3 4 1020.0 1020.0 0.0
31/02:57am 7.2 5.7 6.6 96 0.3 WSW 4 7 2 4 1020.0 1020.0 0.0
31/02:38am 6.5 5.5 5.8 95 0.3 CALM 0 0 0 0 1020.1 1020.1 0.0
31/02:30am 6.7 5.8 6.0 95 0.3 CALM 0 0 0 0 1020.1 1020.1 0.0
31/02:00am 7.7 7.0 7.1 96 0.3 CALM 0 0 0 0 1020.3 1020.3 0.0
31/01:30am 8.1 7.6 7.7 97 0.2 CALM 0 0 0 0 1020.7 1020.7 0.0
31/01:00am 8.5 6.4 8.1 97 0.2 NW 9 11 5 6 1021.0 1021.0 0.0
31/12:46am 8.3 7.1 7.9 97 0.2 NNW 4 9 2 5 1021.2 1021.2 0.0
31/12:30am 7.3 5.4 6.7 96 0.3 N 6 9 3 5 1021.3 1021.3 0.0
31/12:12am 7.1 6.3 6.5 96 0.3 CALM 0 6 0 3 1021.4 1021.4 0.0
31/12:00am 9.2 8.2 8.7 97 0.2 N 4 7 2 4 1021.3 1021.3 0.0
 
Date/Time
EST
Temp
°C
App
Temp
°C
Dew
Point
Rel
Hum
%
Delta-T
°C
Wind Press
QNH
hPa
Press
MSL
hPa
Rain
since 9 am
mm
Dir
 
Spd
km/h
Gust
km/h
Spd
kts
Gust
kts
30/11:30pm 7.6 6.9 7.0 96 0.3 CALM 0 4 0 2 1021.6 1021.6 0.0
30/11:00pm 8.6 7.4 8.0 96 0.3 NNW 4 7 2 4 1021.8 1021.8 0.0
30/10:53pm 9.2 8.9 8.6 96 0.3 CALM 0 6 0 3 1021.8 1021.8 0.0
30/10:30pm 8.1 7.5 7.5 96 0.3 CALM 0 0 0 0 1022.0 1022.0 0.0
30/10:00pm 9.4 9.1 8.8 96 0.3 CALM 0 0 0 0 1021.6 1021.6 0.0
30/09:35pm 8.2 6.7 7.0 92 0.6 NNW 4 11 2 6 1021.7 1021.7 0.0
30/09:30pm 8.5 7.9 7.3 92 0.6 CALM 0 0 0 0 1021.7 1021.7 0.0
30/09:00pm 8.9 8.3 7.5 91 0.7 CALM 0 0 0 0 1021.7 1021.7 0.0
30/08:30pm 10.0 9.7 8.8 92 0.6 CALM 0 0 0 0 1021.7 1021.7 0.0
30/08:00pm 10.4 9.4 8.8 90 0.8 NNE 4 7 2 4 1021.8 1021.8 0.0
30/07:30pm 11.7 11.7 9.8 88 1.0 CALM 0 0 0 0 1021.9 1021.9 0.0
30/07:00pm 13.6 13.9 10.9 84 1.4 CALM 0 0 0 0 1021.8 1021.8 0.0
30/06:30pm 15.1 13.3 12.2 83 1.6 N 13 17 7 9 1021.6 1021.6 0.0
30/06:00pm 15.6 13.8 12.2 80 1.8 NNE 13 17 7 9 1021.4 1021.4 0.0
30/05:30pm 16.2 14.4 12.2 77 2.2 N 13 19 7 10 1021.8 1021.8 0.0
30/05:00pm 17.2 15.2 12.7 75 2.5 NNE 15 20 8 11 1022.0 1022.0 0.0
30/04:30pm 17.9 15.9 12.8 72 2.8 NNE 15 20 8 11 1021.9 1021.9 0.0
30/04:00pm 18.6 15.8 12.6 68 3.3 NE 19 28 10 15 1021.9 1021.9 0.0
30/03:30pm 19.2 16.8 12.7 66 3.6 NE 17 22 9 12 1022.3 1022.3 0.0
30/03:00pm 19.6 16.6 12.4 63 4.0 NE 20 30 11 16 1022.1 1022.1 0.0
30/02:30pm 19.2 16.5 12.9 67 3.5 NE 19 30 10 16 1022.2 1022.2 0.0
30/02:00pm 19.7 16.8 12.9 65 3.8 NE 20 28 11 15 1022.5 1022.5 0.0
30/01:30pm 20.7 17.7 10.8 53 5.4 NNE 17 32 9 17 1022.8 1022.8 0.0
30/01:00pm 20.3 16.9 10.7 54 5.2 NNE 19 24 10 13 1023.7 1023.7 0.0
30/12:30pm 19.9 17.9 11.4 58 4.7 N 13 20 7 11 1024.5 1024.5 0.0
30/12:00pm 19.1 15.8 10.9 59 4.4 N 19 24 10 13 1025.1 1025.1 0.0
30/11:30am 18.9 16.4 11.0 60 4.3 N 15 20 8 11 1026.0 1026.0 0.0
30/11:00am 18.1 16.5 10.2 60 4.2 N 9 19 5 10 1026.8 1026.8 0.0
30/10:30am 16.8 15.5 10.0 64 3.6 NW 7 11 4 6 1027.4 1027.4 0.0
30/10:00am 15.7 13.5 9.4 66 3.2 NW 11 15 6 8 1027.9 1027.9 0.0
30/09:30am 14.7 13.0 9.7 72 2.6 NW 9 11 5 6 1027.8 1027.8 0.0
30/09:00am 12.8 10.9 9.1 78 1.9 WNW 9 15 5 8 1028.2 1028.2 0.0
30/08:30am 11.2 9.8 8.8 85 1.2 WNW 6 11 3 6 1028.3 1028.3 0.0
30/08:00am 9.1 7.4 7.7 91 0.7 WSW 6 9 3 5 1028.3 1028.3 0.0
30/07:30am 7.9 6.1 7.1 95 0.4 WNW 6 7 3 4 1028.0 1028.0 0.0
30/07:00am 7.2 6.4 6.3 94 0.4 CALM 0 0 0 0 1027.9 1027.9 0.0
30/06:30am 7.2 6.4 6.3 94 0.4 CALM 0 0 0 0 1027.7 1027.7 0.0
30/06:00am 7.2 5.0 6.1 93 0.5 NNW 7 9 4 5 1027.5 1027.5 0.0
30/05:30am 7.8 6.3 6.7 93 0.5 WNW 4 9 2 5 1027.3 1027.3 0.0
30/05:00am 7.7 5.3 6.8 94 0.4 WNW 9 13 5 7 1027.4 1027.4 0.0
30/04:30am 7.7 6.2 6.8 94 0.4 NNW 4 7 2 4 1027.7 1027.7 0.0
30/04:00am 7.8 7.1 6.9 94 0.4 CALM 0 6 0 3 1027.8 1027.8 0.0
30/03:30am 7.7 5.8 6.8 94 0.4 NW 6 7 3 4 1028.1 1028.1 0.0
30/03:00am 8.1 6.3 7.2 94 0.4 NNW 6 7 3 4 1028.2 1028.2 0.0
30/02:30am 7.9 6.0 6.7 92 0.6 NW 6 7 3 4 1028.4 1028.4 0.0
30/02:00am 8.7 8.0 7.0 89 0.8 CALM 0 0 0 0 1028.8 1028.8 0.0
30/01:30am 9.5 7.7 7.9 90 0.8 WNW 7 11 4 6 1029.2 1029.2 0.0
30/01:00am 9.6 7.1 8.2 91 0.7 WNW 11 19 6 10 1029.8 1029.8 0.0
30/12:30am 9.2 7.1 8.1 93 0.5 WNW 9 13 5 7 1029.9 1029.9 0.0
30/12:00am 9.1 7.4 8.2 94 0.4 WNW 7 11 4 6 1030.1 1030.1 0.0
 
Date/Time
EST
Temp
°C
App
Temp
°C
Dew
Point
Rel
Hum
%
Delta-T
°C
Wind Press
QNH
hPa
Press
MSL
hPa
Rain
since 9 am
mm
Dir
 
Spd
km/h
Gust
km/h
Spd
kts
Gust
kts
29/11:30pm 8.9 7.7 8.1 95 0.4 NW 4 11 2 6 1030.0 1030.0 0.0
29/11:00pm 8.2 6.3 7.4 95 0.4 WNW 7 9 4 5 1030.1 1030.1 0.0
29/10:30pm 7.8 6.7 6.9 94 0.4 WNW 2 7 1 4 1030.3 1030.3 0.0
29/10:00pm 8.4 7.8 7.6 95 0.4 CALM 0 0 0 0 1030.8 1030.8 0.0
29/09:30pm 7.3 6.0 6.1 92 0.5 W 2 7 1 4 1030.9 1030.9 0.0
29/09:00pm 7.9 7.1 6.7 92 0.5 CALM 0 0 0 0 1031.0 1031.0 0.0
29/08:30pm 8.2 7.4 6.5 89 0.8 CALM 0 0 0 0 1031.0 1031.0 0.0
29/08:00pm 8.7 8.0 7.0 89 0.8 CALM 0 0 0 0 1030.8 1030.8 0.0
29/07:30pm 9.5 8.6 7.8 89 0.8 WSW 2 6 1 3 1030.7 1030.7 0.0
29/07:00pm 10.2 9.7 8.0 86 1.1 CALM 0 2 0 1 1030.3 1030.3 0.0
29/06:30pm 11.9 11.4 9.3 84 1.3 WSW 2 7 1 4 1030.3 1030.3 0.0
29/06:00pm 12.8 11.3 9.1 78 1.8 SSW 7 9 4 5 1029.9 1029.9 0.0
29/05:30pm 14.2 12.3 9.0 71 2.6 S 9 11 5 6 1029.7 1029.7 0.0
29/05:00pm 15.7 13.8 9.1 65 3.4 SSE 9 13 5 7 1029.6 1029.6 0.0
29/04:30pm 17.1 14.4 8.8 58 4.3 SSW 13 17 7 9 1029.5 1029.5 0.0
29/04:00pm 17.8 14.6 8.4 54 4.8 S 15 20 8 11 1029.4 1029.4 0.0
29/03:30pm 17.9 14.5 9.0 56 4.6 SSW 17 20 9 11 1029.5 1029.5 0.0
29/03:00pm 18.3 14.5 9.1 55 4.8 S 19 24 10 13 1029.5 1029.5 0.0
29/02:30pm 18.5 14.6 9.6 56 4.7 S 20 26 11 14 1029.7 1029.7 0.0
29/02:00pm 18.0 14.1 8.8 55 4.7 SSW 19 26 10 14 1029.9 1029.9 0.0
29/01:30pm 18.9 15.0 8.8 52 5.3 S 19 24 10 13 1030.0 1030.0 0.0
29/01:00pm 18.7 14.9 8.9 53 5.1 SSW 19 24 10 13 1030.5 1030.5 0.0
29/12:30pm 18.6 15.1 8.8 53 5.1 SSW 17 24 9 13 1030.9 1030.9 0.0
29/12:00pm 18.3 14.4 9.4 56 4.6 SSW 20 28 11 15 1031.5 1031.5 0.0
29/11:30am 18.2 14.2 9.0 55 4.8 WSW 20 26 11 14 1032.0 1032.0 0.0
29/11:00am 17.2 14.3 9.6 61 3.9 W 15 20 8 11 1032.5 1032.5 0.0
29/10:30am 15.5 12.6 8.3 62 3.6 W 13 19 7 10 1032.9 1032.9 0.0
29/10:00am 14.3 11.3 7.6 64 3.3 W 13 17 7 9 1033.2 1033.2 0.0
29/09:30am 13.6 10.0 6.9 64 3.2 W 15 22 8 12 1033.5 1033.5 0.0
29/09:00am 12.3 8.2 6.1 66 2.9 W 17 22 9 12 1033.6 1033.6 0.0
29/08:30am 11.9 7.7 5.5 65 3.0 W 17 22 9 12 1033.4 1033.4 0.0
29/08:00am 11.0 7.1 5.3 68 2.6 W 15 20 8 11 1033.1 1033.1 0.0
29/07:30am 10.5 6.4 4.6 67 2.6 W 15 20 8 11 1033.1 1033.1 0.0
29/07:00am 10.0 5.9 4.2 67 2.5 W 15 20 8 11 1032.9 1032.9 0.0
29/06:30am 9.7 5.9 4.1 68 2.5 W 13 19 7 10 1032.5 1032.5 0.0
29/06:00am 9.5 5.3 3.9 68 2.4 W 15 20 8 11 1032.2 1032.2 0.0
29/05:30am 9.3 4.7 3.9 69 2.4 WNW 17 22 9 12 1032.2 1032.2 0.0
29/05:00am 8.6 5.5 3.8 72 2.1 SW 9 15 5 8 1032.2 1032.2 0.0
29/04:30am 8.8 4.5 3.4 69 2.3 W 15 20 8 11 1031.8 1031.8 0.0
29/04:00am 8.0 4.5 3.3 72 2.0 W 11 17 6 9 1031.6 1031.6 0.0
29/03:30am 8.2 4.6 3.1 70 2.2 W 11 17 6 9 1031.5 1031.5 0.0
29/03:00am 7.9 3.9 2.8 70 2.1 W 13 20 7 11 1031.7 1031.7 0.0
29/02:30am 7.6 3.6 2.7 71 2.0 W 13 17 7 9 1031.7 1031.7 0.0
29/02:00am 7.8 3.0 2.7 70 2.1 W 17 22 9 12 1031.6 1031.6 0.0
29/01:30am 7.7 3.3 2.6 70 2.1 W 15 20 8 11 1031.7 1031.7 0.0
29/01:00am 7.7 3.7 2.8 71 2.0 W 13 20 7 11 1031.9 1031.9 0.0
29/12:30am 8.1 3.3 2.8 69 2.2 W 17 24 9 13 1032.0 1032.0 0.0
29/12:00am 8.1 3.7 2.8 69 2.2 W 15 24 8 13 1032.1 1032.1 0.0
 
Date/Time
EST
Temp
°C
App
Temp
°C
Dew
Point
Rel
Hum
%
Delta-T
°C
Wind Press
QNH
hPa
Press
MSL
hPa
Rain
since 9 am
mm
Dir
 
Spd
km/h
Gust
km/h
Spd
kts
Gust
kts
28/11:30pm 8.1 3.8 3.0 70 2.2 W 15 20 8 11 1032.2 1032.2 0.0
28/11:00pm 7.7 4.1 3.0 72 2.0 W 11 17 6 9 1032.1 1032.1 0.0
28/10:30pm 8.0 4.1 3.5 73 1.9 W 13 15 7 8 1032.1 1032.1 0.0
28/10:00pm 7.2 4.7 4.0 80 1.4 WNW 6 15 3 8 1032.2 1032.2 0.0
28/09:30pm 6.1 2.9 3.3 82 1.2 NW 9 11 5 6 1032.3 1032.3 0.0
28/09:00pm 7.7 4.3 4.1 78 1.5 WSW 11 15 6 8 1032.4 1032.4 0.0
28/08:30pm 6.7 5.0 3.9 82 1.2 WSW 2 9 1 5 1032.4 1032.4 0.0
28/08:00pm 7.0 4.6 4.1 82 1.2 SSW 6 7 3 4 1032.3 1032.3 0.0
28/07:30pm 6.6 3.7 4.8 88 0.8 WSW 9 11 5 6 1032.2 1032.2 0.0
28/07:00pm 6.6 3.7 4.4 86 0.9 WSW 9 11 5 6 1032.0 1032.0 0.0
28/06:30pm 7.3 4.1 4.9 85 1.1 SW 11 13 6 7 1031.6 1031.6 0.0
28/06:00pm 8.6 7.5 5.0 78 1.6 CALM 0 0 0 0 1031.1 1031.1 0.0
28/05:30pm 9.7 7.3 4.3 69 2.4 WSW 6 7 3 4 1030.8 1030.8 0.0
28/05:00pm 13.9 11.7 3.4 49 4.7 WSW 4 7 2 4 1030.5 1030.5 0.0
28/04:30pm 15.2 11.6 2.7 43 5.6 SW 11 15 6 8 1030.3 1030.3 0.0
28/04:00pm 16.1 11.5 1.4 37 6.4 SW 15 20 8 11 1030.1 1030.1 0.0
28/03:30pm 16.7 11.4 1.6 36 6.7 WSW 19 24 10 13 1029.9 1029.9 0.0
28/03:00pm 17.0 12.1 1.8 36 6.7 SW 17 26 9 14 1029.8 1029.8 0.0
28/02:30pm 17.0 11.5 0.6 33 7.1 SSW 19 26 10 14 1029.9 1029.9 0.0
28/02:00pm 16.9 11.5 1.0 34 6.9 SSW 19 24 10 13 1029.8 1029.8 0.0
28/01:30pm 16.9 12.5 2.9 39 6.4 SW 15 20 8 11 1030.0 1030.0 0.0
28/01:00pm 16.3 11.0 2.0 38 6.3 SW 19 26 10 14 1030.3 1030.3 0.0
28/12:30pm 16.2 10.0 2.2 39 6.3 SW 24 32 13 17 1030.8 1030.8 0.0
28/12:00pm 16.0 10.2 2.4 40 6.0 SW 22 32 12 17 1031.1 1031.1 0.0
28/11:30am 15.6 9.8 2.4 41 5.9 SW 22 32 12 17 1031.5 1031.5 0.0
28/11:00am 14.8 8.6 2.0 42 5.6 SW 24 32 13 17 1032.0 1032.0 0.0
28/10:30am 14.4 9.1 2.0 43 5.4 WSW 19 28 10 15 1032.2 1032.2 0.0
28/10:00am 13.5 9.2 3.0 49 4.6 WSW 15 20 8 11 1032.2 1032.2 0.0
28/09:30am 12.3 8.2 2.5 51 4.3 WSW 13 17 7 9 1032.3 1032.3 0.0
28/09:00am 10.7 6.6 2.0 55 3.6 WSW 13 17 7 9 1032.1 1032.1 0.0
28/08:30am 9.3 5.9 1.9 60 3.1 W 9 15 5 8 1031.9 1031.9 0.0

Other Formats:

Comma delimited format used in spreadsheet applications
http://www.bom.gov.au/fwo/IDN60801/IDN60801.94786.axf

JavaScript Object Notation format (JSON) in row-major order
http://www.bom.gov.au/fwo/IDN60801/IDN60801.94786.json